Aeroporto :
LOGIN :

Iscrizione | Disclaimer

   EN    FR    IT 

 










Sommario :    VFR   VFR Marginale   IFR   IFR Intensivo   IFR Molto Intensivo
Visibilità : 
Base nubi : 
>= 8 km
>= 3000ft
5 / 8 km
1000 / 3000 ft
1500m / 5 km
500 / 1000 ft
800 / 1500m
200 / 500 ft
< 800m
< 200 ft
Simboli :   Temporali  Nebbia  Neve Forte  Precipitazioni Forti  Vento > 20 kt
SIGMETs :   Varie  Temporali  Ghiacco  Turbolenza  Onda orograficha  Ceneri Vulcaniche






- Altitudine del aeroporto : 1247 ft
- Codice IATA : PRG


LKPR - Praha Ruzyne

ULTIMO METAR :
  • 260230Z 31006KT 9999 -SHRA SCT011 BKN048 09/07 Q1031 NOSIG

METARs OBSOLETI :
  • 260200Z 30007KT 9999 -SHRA SCT013 BKN035 09/07 Q1031 NOSIG
  • 260130Z 31006KT 9999 BKN016 09/07 Q1031 NOSIG
  • 260100Z 31005KT 9999 FEW017 BKN048 09/07 Q1031 NOSIG
  • 260030Z 29005KT 9999 SCT018 08/07 Q1031 NOSIG
  • 260000Z 29007KT 9999 FEW019 08/07 Q1031 NOSIG

TAF TAF LKPR
Valido dal 26 a 00 ore il 27 a 06 ore UTC


252300Z 2600/2706 32008KT 9999 BKN025
TEMPO 2608/2618 01012G22KT 9999 -SHRA BKN030
BECMG 2618/2620 SCT035



MetMap, La meteo Aeronautica in un colpo d'occhio ! - Copyright ORBIFLY Dicembre 2007 - Disclaimer

ORBIFLY MET'MAP TEAM :

Programmazione e sviluppo : Alexandra Zaïnal
Concezione : Baudouin d'Aumeries
Aiuto per la programmazione : Marc-Olivier Méhu
Supporto tecnico e logistico : Manuel Goepfert
Aiuto per la traduzione : Arnaldo La Scala

Contatto : metmap@orbifly.com




FONTI E CREDITI :

   NOAA